sensor_id;sensor_type;location;lat;lon;timestamp;pressure;altitude;pressure_sealevel;temperature;humidity
22333;BME280;11334;36.986;-121.936;2024-02-16T00:01:37;101732.81;;;18.63;70.49
22333;BME280;11334;36.986;-121.936;2024-02-16T00:04:03;101726.97;;;18.60;71.34
22333;BME280;11334;36.986;-121.936;2024-02-16T00:06:29;101738.53;;;18.60;71.33
22333;BME280;11334;36.986;-121.936;2024-02-16T00:08:56;101731.91;;;18.70;65.60
22333;BME280;11334;36.986;-121.936;2024-02-16T00:11:22;101733.75;;;18.56;63.52
22333;BME280;11334;36.986;-121.936;2024-02-16T00:13:51;101739.25;;;18.40;64.31
22333;BME280;11334;36.986;-121.936;2024-02-16T00:16:17;101738.97;;;18.35;66.49
22333;BME280;11334;36.986;-121.936;2024-02-16T00:18:43;101746.34;;;18.33;66.55
22333;BME280;11334;36.986;-121.936;2024-02-16T00:21:10;101743.31;;;18.22;66.52
22333;BME280;11334;36.986;-121.936;2024-02-16T00:23:36;101740.19;;;18.10;67.61
22333;BME280;11334;36.986;-121.936;2024-02-16T00:26:03;101731.00;;;17.83;69.44
22333;BME280;11334;36.986;-121.936;2024-02-16T00:28:32;101752.59;;;17.89;70.71
22333;BME280;11334;36.986;-121.936;2024-02-16T00:30:59;101753.50;;;17.82;70.76
22333;BME280;11334;36.986;-121.936;2024-02-16T00:33:25;101750.81;;;17.82;71.71
22333;BME280;11334;36.986;-121.936;2024-02-16T00:35:51;101749.00;;;17.74;73.15
22333;BME280;11334;36.986;-121.936;2024-02-16T00:38:18;101743.94;;;17.79;72.38
22333;BME280;11334;36.986;-121.936;2024-02-16T00:40:44;101739.88;;;17.83;72.19
22333;BME280;11334;36.986;-121.936;2024-02-16T00:43:11;101734.81;;;17.88;73.46
22333;BME280;11334;36.986;-121.936;2024-02-16T00:45:38;101745.25;;;17.83;74.24
22333;BME280;11334;36.986;-121.936;2024-02-16T00:48:04;101738.88;;;17.84;75.05
22333;BME280;11334;36.986;-121.936;2024-02-16T00:50:33;101743.69;;;17.89;73.29
22333;BME280;11334;36.986;-121.936;2024-02-16T00:52:59;101745.75;;;17.87;74.34
22333;BME280;11334;36.986;-121.936;2024-02-16T00:55:25;101740.00;;;17.90;75.25
22333;BME280;11334;36.986;-121.936;2024-02-16T00:57:52;101731.97;;;17.90;75.67
22333;BME280;11334;36.986;-121.936;2024-02-16T01:00:18;101709.97;;;17.94;76.34
22333;BME280;11334;36.986;-121.936;2024-02-16T01:02:49;101691.53;;;17.91;76.14
22333;BME280;11334;36.986;-121.936;2024-02-16T01:05:16;101697.41;;;17.95;76.37
22333;BME280;11334;36.986;-121.936;2024-02-16T01:07:44;101691.38;;;17.93;75.54
22333;BME280;11334;36.986;-121.936;2024-02-16T01:10:11;101694.78;;;17.87;76.79
22333;BME280;11334;36.986;-121.936;2024-02-16T01:12:38;101709.84;;;17.88;78.18
22333;BME280;11334;36.986;-121.936;2024-02-16T01:15:04;101705.31;;;17.88;78.05
22333;BME280;11334;36.986;-121.936;2024-02-16T01:17:31;101712.91;;;17.85;78.12
22333;BME280;11334;36.986;-121.936;2024-02-16T01:19:58;101718.78;;;17.80;79.03
22333;BME280;11334;36.986;-121.936;2024-02-16T01:22:25;101722.13;;;17.82;80.53
22333;BME280;11334;36.986;-121.936;2024-02-16T01:24:52;101723.69;;;17.77;80.53
22333;BME280;11334;36.986;-121.936;2024-02-16T01:27:18;101729.75;;;17.71;80.23
22333;BME280;11334;36.986;-121.936;2024-02-16T01:29:44;101741.97;;;17.73;79.20
22333;BME280;11334;36.986;-121.936;2024-02-16T01:32:10;101734.19;;;17.64;79.61
22333;BME280;11334;36.986;-121.936;2024-02-16T01:34:37;101724.16;;;17.58;80.37
22333;BME280;11334;36.986;-121.936;2024-02-16T01:37:05;101730.22;;;17.52;81.53
22333;BME280;11334;36.986;-121.936;2024-02-16T01:39:31;101734.94;;;17.50;82.28
22333;BME280;11334;36.986;-121.936;2024-02-16T01:41:57;101723.75;;;17.47;82.99
22333;BME280;11334;36.986;-121.936;2024-02-16T01:44:23;101721.94;;;17.40;83.26
22333;BME280;11334;36.986;-121.936;2024-02-16T01:46:49;101718.44;;;17.31;84.29
22333;BME280;11334;36.986;-121.936;2024-02-16T01:49:16;101715.09;;;17.29;85.15
22333;BME280;11334;36.986;-121.936;2024-02-16T01:51:42;101718.50;;;17.23;86.60
22333;BME280;11334;36.986;-121.936;2024-02-16T01:54:11;101721.38;;;17.14;87.08
22333;BME280;11334;36.986;-121.936;2024-02-16T01:56:38;101737.13;;;17.09;88.39
22333;BME280;11334;36.986;-121.936;2024-02-16T01:59:04;101741.50;;;17.02;89.16
22333;BME280;11334;36.986;-121.936;2024-02-16T02:01:30;101739.16;;;16.99;89.96
22333;BME280;11334;36.986;-121.936;2024-02-16T02:03:56;101743.72;;;16.91;90.65
22333;BME280;11334;36.986;-121.936;2024-02-16T02:06:22;101738.56;;;16.81;91.10
22333;BME280;11334;36.986;-121.936;2024-02-16T02:08:49;101733.25;;;16.74;91.45
22333;BME280;11334;36.986;-121.936;2024-02-16T02:11:15;101731.44;;;16.66;91.71
22333;BME280;11334;36.986;-121.936;2024-02-16T02:13:41;101738.13;;;16.54;92.59
22333;BME280;11334;36.986;-121.936;2024-02-16T02:16:09;101739.66;;;16.49;92.98
22333;BME280;11334;36.986;-121.936;2024-02-16T02:18:35;101738.50;;;16.44;93.16
22333;BME280;11334;36.986;-121.936;2024-02-16T02:21:02;101733.81;;;16.38;93.43
22333;BME280;11334;36.986;-121.936;2024-02-16T02:23:28;101734.66;;;16.30;93.79
22333;BME280;11334;36.986;-121.936;2024-02-16T02:25:54;101747.88;;;16.24;93.83
22333;BME280;11334;36.986;-121.936;2024-02-16T02:28:20;101735.16;;;16.18;94.78
22333;BME280;11334;36.986;-121.936;2024-02-16T02:30:49;101750.03;;;16.12;94.87
22333;BME280;11334;36.986;-121.936;2024-02-16T02:33:15;101752.69;;;16.05;94.80
22333;BME280;11334;36.986;-121.936;2024-02-16T02:35:42;101748.19;;;15.97;94.97
22333;BME280;11334;36.986;-121.936;2024-02-16T02:38:08;101742.66;;;15.91;95.30
22333;BME280;11334;36.986;-121.936;2024-02-16T02:40:35;101748.50;;;15.79;96.09
22333;BME280;11334;36.986;-121.936;2024-02-16T02:43:02;101741.16;;;15.73;96.29
22333;BME280;11334;36.986;-121.936;2024-02-16T02:45:29;101747.66;;;15.70;96.55
22333;BME280;11334;36.986;-121.936;2024-02-16T02:47:55;101736.28;;;15.60;96.76
22333;BME280;11334;36.986;-121.936;2024-02-16T02:50:22;101723.25;;;15.49;96.79
22333;BME280;11334;36.986;-121.936;2024-02-16T02:52:48;101739.94;;;15.51;96.79
22333;BME280;11334;36.986;-121.936;2024-02-16T02:55:14;101733.06;;;15.41;96.61
22333;BME280;11334;36.986;-121.936;2024-02-16T02:57:41;101736.56;;;15.42;96.40
22333;BME280;11334;36.986;-121.936;2024-02-16T03:00:08;101746.06;;;15.36;96.32
22333;BME280;11334;36.986;-121.936;2024-02-16T03:02:40;101737.91;;;15.30;96.36
22333;BME280;11334;36.986;-121.936;2024-02-16T03:05:07;101735.53;;;15.27;96.41
22333;BME280;11334;36.986;-121.936;2024-02-16T03:07:34;101737.56;;;15.25;97.02
22333;BME280;11334;36.986;-121.936;2024-02-16T03:10:00;101741.19;;;15.16;97.67
22333;BME280;11334;36.986;-121.936;2024-02-16T03:12:26;101738.34;;;15.10;97.34
22333;BME280;11334;36.986;-121.936;2024-02-16T03:14:53;101736.94;;;15.06;96.40
22333;BME280;11334;36.986;-121.936;2024-02-16T03:17:19;101730.25;;;15.02;96.31
22333;BME280;11334;36.986;-121.936;2024-02-16T03:19:45;101728.22;;;14.96;96.16
22333;BME280;11334;36.986;-121.936;2024-02-16T03:22:12;101728.38;;;14.94;94.94
22333;BME280;11334;36.986;-121.936;2024-02-16T03:24:38;101724.34;;;14.83;95.40
22333;BME280;11334;36.986;-121.936;2024-02-16T03:27:05;101732.16;;;14.84;95.37
22333;BME280;11334;36.986;-121.936;2024-02-16T03:29:31;101738.97;;;14.79;94.95
22333;BME280;11334;36.986;-121.936;2024-02-16T03:31:57;101742.31;;;14.73;95.10
22333;BME280;11334;36.986;-121.936;2024-02-16T03:34:23;101749.94;;;14.68;95.33
22333;BME280;11334;36.986;-121.936;2024-02-16T03:36:49;101761.09;;;14.63;95.34
22333;BME280;11334;36.986;-121.936;2024-02-16T03:39:16;101768.25;;;14.63;95.28
22333;BME280;11334;36.986;-121.936;2024-02-16T03:41:45;101767.03;;;14.57;95.14
22333;BME280;11334;36.986;-121.936;2024-02-16T03:44:15;101766.50;;;14.54;96.36
22333;BME280;11334;36.986;-121.936;2024-02-16T03:46:44;101762.19;;;14.53;95.95
22333;BME280;11334;36.986;-121.936;2024-02-16T03:49:10;101766.97;;;14.50;96.25
22333;BME280;11334;36.986;-121.936;2024-02-16T03:51:37;101761.59;;;14.42;96.59
22333;BME280;11334;36.986;-121.936;2024-02-16T03:54:03;101766.72;;;14.35;97.32
22333;BME280;11334;36.986;-121.936;2024-02-16T03:56:32;101767.56;;;14.36;97.60
22333;BME280;11334;36.986;-121.936;2024-02-16T03:58:58;101772.16;;;14.26;98.20
22333;BME280;11334;36.986;-121.936;2024-02-16T04:01:24;101780.63;;;14.22;98.52
22333;BME280;11334;36.986;-121.936;2024-02-16T04:03:51;101786.91;;;14.21;98.11
22333;BME280;11334;36.986;-121.936;2024-02-16T04:06:19;101792.41;;;14.19;98.01
22333;BME280;11334;36.986;-121.936;2024-02-16T04:08:45;101782.91;;;14.17;97.45
22333;BME280;11334;36.986;-121.936;2024-02-16T04:11:12;101781.91;;;14.18;97.53
22333;BME280;11334;36.986;-121.936;2024-02-16T04:13:39;101784.75;;;14.16;97.53
22333;BME280;11334;36.986;-121.936;2024-02-16T04:16:05;101784.06;;;14.14;97.55
22333;BME280;11334;36.986;-121.936;2024-02-16T04:18:32;101792.19;;;14.13;97.62
22333;BME280;11334;36.986;-121.936;2024-02-16T04:20:58;101785.50;;;14.09;97.25
22333;BME280;11334;36.986;-121.936;2024-02-16T04:23:24;101791.97;;;14.06;97.78
22333;BME280;11334;36.986;-121.936;2024-02-16T04:25:50;101785.78;;;14.06;98.67
22333;BME280;11334;36.986;-121.936;2024-02-16T04:28:16;101794.53;;;13.98;99.21
22333;BME280;11334;36.986;-121.936;2024-02-16T04:30:44;101775.06;;;13.98;99.29
22333;BME280;11334;36.986;-121.936;2024-02-16T04:33:10;101765.69;;;13.94;99.53
22333;BME280;11334;36.986;-121.936;2024-02-16T04:35:36;101767.97;;;13.89;99.82
22333;BME280;11334;36.986;-121.936;2024-02-16T04:38:02;101759.97;;;13.89;99.10
22333;BME280;11334;36.986;-121.936;2024-02-16T04:40:35;101760.94;;;13.88;98.86
22333;BME280;11334;36.986;-121.936;2024-02-16T04:43:02;101766.22;;;13.80;98.80
22333;BME280;11334;36.986;-121.936;2024-02-16T04:45:28;101769.50;;;13.74;99.18
22333;BME280;11334;36.986;-121.936;2024-02-16T04:47:56;101760.81;;;13.72;98.79
22333;BME280;11334;36.986;-121.936;2024-02-16T04:50:22;101766.44;;;13.69;99.35
22333;BME280;11334;36.986;-121.936;2024-02-16T04:52:48;101772.09;;;13.66;99.52
22333;BME280;11334;36.986;-121.936;2024-02-16T04:55:14;101780.75;;;13.68;99.42
22333;BME280;11334;36.986;-121.936;2024-02-16T04:57:41;101765.69;;;13.59;99.61
22333;BME280;11334;36.986;-121.936;2024-02-16T05:00:07;101764.53;;;13.62;99.78
22333;BME280;11334;36.986;-121.936;2024-02-16T05:02:35;101766.81;;;13.57;100.00
22333;BME280;11334;36.986;-121.936;2024-02-16T05:05:01;101766.56;;;13.51;100.00
22333;BME280;11334;36.986;-121.936;2024-02-16T05:07:29;101757.81;;;13.41;100.00
22333;BME280;11334;36.986;-121.936;2024-02-16T05:09:56;101776.16;;;13.44;100.00
22333;BME280;11334;36.986;-121.936;2024-02-16T05:12:24;101771.00;;;13.42;100.00
22333;BME280;11334;36.986;-121.936;2024-02-16T05:14:51;101766.50;;;13.43;100.00
22333;BME280;11334;36.986;-121.936;2024-02-16T05:17:19;101773.66;;;13.42;100.00
22333;BME280;11334;36.986;-121.936;2024-02-16T05:19:48;101764.50;;;13.27;100.00
22333;BME280;11334;36.986;-121.936;2024-02-16T05:22:15;101773.19;;;13.29;100.00
22333;BME280;11334;36.986;-121.936;2024-02-16T05:24:44;101770.66;;;13.28;100.00
22333;BME280;11334;36.986;-121.936;2024-02-16T05:27:10;101770.97;;;13.25;100.00
22333;BME280;11334;36.986;-121.936;2024-02-16T05:29:37;101772.22;;;13.21;100.00
22333;BME280;11334;36.986;-121.936;2024-02-16T05:32:03;101772.91;;;13.23;100.00
22333;BME280;11334;36.986;-121.936;2024-02-16T05:34:29;101774.34;;;13.18;100.00
22333;BME280;11334;36.986;-121.936;2024-02-16T05:37:04;101773.34;;;13.19;100.00
22333;BME280;11334;36.986;-121.936;2024-02-16T05:39:33;101777.44;;;13.13;100.00
22333;BME280;11334;36.986;-121.936;2024-02-16T05:42:01;101779.41;;;13.11;100.00
22333;BME280;11334;36.986;-121.936;2024-02-16T05:44:28;101777.88;;;13.09;100.00
22333;BME280;11334;36.986;-121.936;2024-02-16T05:46:54;101775.66;;;13.04;100.00
22333;BME280;11334;36.986;-121.936;2024-02-16T05:49:23;101786.50;;;12.94;100.00
22333;BME280;11334;36.986;-121.936;2024-02-16T05:51:50;101790.41;;;12.99;100.00
22333;BME280;11334;36.986;-121.936;2024-02-16T05:54:35;101787.03;;;12.97;100.00
22333;BME280;11334;36.986;-121.936;2024-02-16T05:57:01;101792.53;;;12.95;100.00
22333;BME280;11334;36.986;-121.936;2024-02-16T05:59:27;101789.19;;;12.84;100.00
22333;BME280;11334;36.986;-121.936;2024-02-16T06:01:53;101789.91;;;12.86;100.00
22333;BME280;11334;36.986;-121.936;2024-02-16T06:04:19;101780.09;;;12.87;100.00
22333;BME280;11334;36.986;-121.936;2024-02-16T06:06:45;101780.25;;;12.85;100.00
22333;BME280;11334;36.986;-121.936;2024-02-16T06:09:12;101778.56;;;12.84;100.00
22333;BME280;11334;36.986;-121.936;2024-02-16T06:11:38;101777.31;;;12.79;100.00
22333;BME280;11334;36.986;-121.936;2024-02-16T06:14:07;101779.28;;;12.77;100.00
22333;BME280;11334;36.986;-121.936;2024-02-16T06:16:33;101765.16;;;12.76;100.00
22333;BME280;11334;36.986;-121.936;2024-02-16T06:18:59;101763.72;;;12.72;100.00
22333;BME280;11334;36.986;-121.936;2024-02-16T06:21:25;101774.13;;;12.66;100.00
22333;BME280;11334;36.986;-121.936;2024-02-16T06:23:52;101776.09;;;12.64;100.00
22333;BME280;11334;36.986;-121.936;2024-02-16T06:26:18;101771.06;;;12.61;100.00
22333;BME280;11334;36.986;-121.936;2024-02-16T06:28:46;101765.88;;;12.60;100.00
22333;BME280;11334;36.986;-121.936;2024-02-16T06:31:12;101751.75;;;12.59;100.00
22333;BME280;11334;36.986;-121.936;2024-02-16T06:33:40;101759.59;;;12.61;100.00
22333;BME280;11334;36.986;-121.936;2024-02-16T06:36:06;101754.84;;;12.55;100.00
22333;BME280;11334;36.986;-121.936;2024-02-16T06:38:33;101748.59;;;12.46;100.00
22333;BME280;11334;36.986;-121.936;2024-02-16T06:40:59;101745.22;;;12.44;100.00
22333;BME280;11334;36.986;-121.936;2024-02-16T06:43:25;101762.88;;;12.45;100.00
22333;BME280;11334;36.986;-121.936;2024-02-16T06:45:51;101748.47;;;12.38;100.00
22333;BME280;11334;36.986;-121.936;2024-02-16T06:48:17;101750.44;;;12.36;100.00
22333;BME280;11334;36.986;-121.936;2024-02-16T06:50:44;101760.22;;;12.36;100.00
22333;BME280;11334;36.986;-121.936;2024-02-16T06:53:10;101759.53;;;12.34;100.00
22333;BME280;11334;36.986;-121.936;2024-02-16T06:55:36;101755.75;;;12.27;100.00
22333;BME280;11334;36.986;-121.936;2024-02-16T06:58:02;101756.47;;;12.29;100.00
22333;BME280;11334;36.986;-121.936;2024-02-16T07:00:28;101750.03;;;12.22;100.00
22333;BME280;11334;36.986;-121.936;2024-02-16T07:02:55;101726.72;;;12.16;100.00
22333;BME280;11334;36.986;-121.936;2024-02-16T07:05:21;101715.91;;;12.18;100.00
22333;BME280;11334;36.986;-121.936;2024-02-16T07:07:47;101714.13;;;12.18;100.00
22333;BME280;11334;36.986;-121.936;2024-02-16T07:10:14;101711.47;;;12.18;100.00
22333;BME280;11334;36.986;-121.936;2024-02-16T07:12:40;101721.38;;;12.16;100.00
22333;BME280;11334;36.986;-121.936;2024-02-16T07:15:07;101713.84;;;12.12;100.00
22333;BME280;11334;36.986;-121.936;2024-02-16T07:17:34;101717.63;;;12.09;100.00
22333;BME280;11334;36.986;-121.936;2024-02-16T07:20:01;101717.09;;;12.06;100.00
22333;BME280;11334;36.986;-121.936;2024-02-16T07:22:31;101714.25;;;12.07;100.00
22333;BME280;11334;36.986;-121.936;2024-02-16T07:24:58;101703.81;;;12.06;100.00
22333;BME280;11334;36.986;-121.936;2024-02-16T07:27:26;101695.25;;;12.02;100.00
22333;BME280;11334;36.986;-121.936;2024-02-16T07:29:52;101680.19;;;11.94;100.00
22333;BME280;11334;36.986;-121.936;2024-02-16T07:32:18;101685.94;;;11.89;100.00
22333;BME280;11334;36.986;-121.936;2024-02-16T07:34:48;101684.81;;;11.92;100.00
22333;BME280;11334;36.986;-121.936;2024-02-16T07:37:14;101693.75;;;11.91;100.00
22333;BME280;11334;36.986;-121.936;2024-02-16T07:39:42;101686.34;;;11.85;100.00
22333;BME280;11334;36.986;-121.936;2024-02-16T07:42:08;101694.72;;;11.90;100.00
22333;BME280;11334;36.986;-121.936;2024-02-16T07:44:35;101688.00;;;11.86;100.00
22333;BME280;11334;36.986;-121.936;2024-02-16T07:47:02;101688.59;;;11.80;100.00
22333;BME280;11334;36.986;-121.936;2024-02-16T07:49:29;101684.28;;;11.79;100.00
22333;BME280;11334;36.986;-121.936;2024-02-16T07:51:55;101693.06;;;11.79;100.00
22333;BME280;11334;36.986;-121.936;2024-02-16T07:54:21;101683.69;;;11.75;100.00
22333;BME280;11334;36.986;-121.936;2024-02-16T07:56:47;101695.31;;;11.74;100.00
22333;BME280;11334;36.986;-121.936;2024-02-16T07:59:13;101695.03;;;11.77;100.00
22333;BME280;11334;36.986;-121.936;2024-02-16T08:01:40;101696.97;;;11.75;100.00
22333;BME280;11334;36.986;-121.936;2024-02-16T08:04:06;101706.63;;;11.67;100.00
22333;BME280;11334;36.986;-121.936;2024-02-16T08:06:32;101706.47;;;11.68;100.00
22333;BME280;11334;36.986;-121.936;2024-02-16T08:08:59;101705.66;;;11.68;100.00
22333;BME280;11334;36.986;-121.936;2024-02-16T08:11:25;101701.44;;;11.66;100.00
22333;BME280;11334;36.986;-121.936;2024-02-16T08:13:53;101711.13;;;11.67;100.00
22333;BME280;11334;36.986;-121.936;2024-02-16T08:16:21;101691.66;;;11.66;100.00
22333;BME280;11334;36.986;-121.936;2024-02-16T08:18:47;101691.94;;;11.63;100.00
22333;BME280;11334;36.986;-121.936;2024-02-16T08:21:13;101685.69;;;11.64;100.00
22333;BME280;11334;36.986;-121.936;2024-02-16T08:23:39;101691.13;;;11.63;100.00
22333;BME280;11334;36.986;-121.936;2024-02-16T08:26:06;101692.53;;;11.67;100.00
22333;BME280;11334;36.986;-121.936;2024-02-16T08:28:32;101700.50;;;11.67;100.00
22333;BME280;11334;36.986;-121.936;2024-02-16T08:30:58;101697.56;;;11.69;100.00
22333;BME280;11334;36.986;-121.936;2024-02-16T08:33:24;101705.50;;;11.60;100.00
22333;BME280;11334;36.986;-121.936;2024-02-16T08:35:50;101714.03;;;11.64;100.00
22333;BME280;11334;36.986;-121.936;2024-02-16T08:38:17;101729.41;;;11.60;100.00
22333;BME280;11334;36.986;-121.936;2024-02-16T08:40:43;101728.84;;;11.57;100.00
22333;BME280;11334;36.986;-121.936;2024-02-16T08:43:09;101725.34;;;11.56;100.00
22333;BME280;11334;36.986;-121.936;2024-02-16T08:45:35;101741.41;;;11.55;100.00
22333;BME280;11334;36.986;-121.936;2024-02-16T08:48:02;101733.56;;;11.53;100.00
22333;BME280;11334;36.986;-121.936;2024-02-16T08:50:30;101725.78;;;11.52;100.00
22333;BME280;11334;36.986;-121.936;2024-02-16T08:52:57;101720.47;;;11.52;100.00
22333;BME280;11334;36.986;-121.936;2024-02-16T08:55:23;101714.44;;;11.50;100.00
22333;BME280;11334;36.986;-121.936;2024-02-16T08:57:49;101698.53;;;11.50;100.00
22333;BME280;11334;36.986;-121.936;2024-02-16T09:00:15;101691.94;;;11.54;100.00
22333;BME280;11334;36.986;-121.936;2024-02-16T09:02:42;101691.41;;;11.50;100.00
22333;BME280;11334;36.986;-121.936;2024-02-16T09:05:10;101685.97;;;11.52;100.00
22333;BME280;11334;36.986;-121.936;2024-02-16T09:07:36;101690.00;;;11.56;100.00
22333;BME280;11334;36.986;-121.936;2024-02-16T09:10:02;101699.38;;;11.50;100.00
22333;BME280;11334;36.986;-121.936;2024-02-16T09:12:30;101705.38;;;11.52;100.00
22333;BME280;11334;36.986;-121.936;2024-02-16T09:14:56;101717.09;;;11.50;100.00
22333;BME280;11334;36.986;-121.936;2024-02-16T09:17:22;101720.72;;;11.49;100.00
22333;BME280;11334;36.986;-121.936;2024-02-16T09:19:48;101735.53;;;11.51;100.00
22333;BME280;11334;36.986;-121.936;2024-02-16T09:22:15;101718.66;;;11.52;100.00
22333;BME280;11334;36.986;-121.936;2024-02-16T09:24:41;101715.16;;;11.52;100.00
22333;BME280;11334;36.986;-121.936;2024-02-16T09:27:07;101709.28;;;11.48;100.00
22333;BME280;11334;36.986;-121.936;2024-02-16T09:29:35;101719.06;;;11.48;100.00
22333;BME280;11334;36.986;-121.936;2024-02-16T09:32:02;101716.13;;;11.51;100.00
22333;BME280;11334;36.986;-121.936;2024-02-16T09:34:28;101709.16;;;11.50;100.00
22333;BME280;11334;36.986;-121.936;2024-02-16T09:36:54;101697.81;;;11.48;100.00
22333;BME280;11334;36.986;-121.936;2024-02-16T09:39:20;101711.09;;;11.48;100.00
22333;BME280;11334;36.986;-121.936;2024-02-16T09:41:50;101703.25;;;11.46;100.00
22333;BME280;11334;36.986;-121.936;2024-02-16T09:44:18;101698.94;;;11.45;100.00
22333;BME280;11334;36.986;-121.936;2024-02-16T09:46:46;101690.00;;;11.46;100.00
22333;BME280;11334;36.986;-121.936;2024-02-16T09:49:12;101689.88;;;11.48;100.00
22333;BME280;11334;36.986;-121.936;2024-02-16T09:51:38;101684.69;;;11.46;100.00
22333;BME280;11334;36.986;-121.936;2024-02-16T09:54:04;101684.84;;;11.45;100.00
22333;BME280;11334;36.986;-121.936;2024-02-16T09:56:32;101691.69;;;11.47;100.00
22333;BME280;11334;36.986;-121.936;2024-02-16T09:58:59;101685.38;;;11.48;100.00
22333;BME280;11334;36.986;-121.936;2024-02-16T10:01:25;101682.91;;;11.47;100.00
22333;BME280;11334;36.986;-121.936;2024-02-16T10:03:52;101681.34;;;11.44;100.00
22333;BME280;11334;36.986;-121.936;2024-02-16T10:06:18;101665.13;;;11.38;100.00
22333;BME280;11334;36.986;-121.936;2024-02-16T10:08:48;101673.13;;;11.47;100.00
22333;BME280;11334;36.986;-121.936;2024-02-16T10:11:16;101665.28;;;11.46;100.00
22333;BME280;11334;36.986;-121.936;2024-02-16T10:14:01;101658.97;;;11.37;100.00
22333;BME280;11334;36.986;-121.936;2024-02-16T10:16:31;101661.47;;;11.39;100.00
22333;BME280;11334;36.986;-121.936;2024-02-16T10:19:07;101669.88;;;11.44;100.00
22333;BME280;11334;36.986;-121.936;2024-02-16T10:21:33;101674.34;;;11.43;100.00
22333;BME280;11334;36.986;-121.936;2024-02-16T10:24:02;101670.88;;;11.43;100.00
22333;BME280;11334;36.986;-121.936;2024-02-16T10:26:29;101673.78;;;11.40;100.00
22333;BME280;11334;36.986;-121.936;2024-02-16T10:28:56;101682.97;;;11.36;100.00
22333;BME280;11334;36.986;-121.936;2024-02-16T10:31:24;101677.38;;;11.39;100.00
22333;BME280;11334;36.986;-121.936;2024-02-16T10:34:04;101694.28;;;11.38;100.00
22333;BME280;11334;36.986;-121.936;2024-02-16T10:36:39;101683.81;;;11.36;100.00
22333;BME280;11334;36.986;-121.936;2024-02-16T10:39:07;101654.09;;;11.33;100.00
22333;BME280;11334;36.986;-121.936;2024-02-16T10:41:40;101639.69;;;11.26;100.00
22333;BME280;11334;36.986;-121.936;2024-02-16T10:44:06;101634.97;;;11.30;100.00
22333;BME280;11334;36.986;-121.936;2024-02-16T10:46:33;101631.47;;;11.29;100.00
22333;BME280;11334;36.986;-121.936;2024-02-16T10:49:00;101624.91;;;11.33;100.00
22333;BME280;11334;36.986;-121.936;2024-02-16T10:54:03;101639.84;;;11.34;100.00
22333;BME280;11334;36.986;-121.936;2024-02-16T10:56:37;101641.66;;;11.34;100.00
22333;BME280;11334;36.986;-121.936;2024-02-16T10:59:05;101670.16;;;11.41;100.00
22333;BME280;11334;36.986;-121.936;2024-02-16T11:02:00;101672.25;;;11.37;100.00
22333;BME280;11334;36.986;-121.936;2024-02-16T11:04:39;101651.84;;;11.29;100.00
22333;BME280;11334;36.986;-121.936;2024-02-16T11:07:14;101655.34;;;11.29;100.00
22333;BME280;11334;36.986;-121.936;2024-02-16T11:09:42;101657.00;;;11.30;100.00
22333;BME280;11334;36.986;-121.936;2024-02-16T11:12:14;101645.69;;;11.28;100.00
22333;BME280;11334;36.986;-121.936;2024-02-16T11:14:45;101638.88;;;11.35;100.00
22333;BME280;11334;36.986;-121.936;2024-02-16T11:17:19;101627.44;;;11.35;100.00
22333;BME280;11334;36.986;-121.936;2024-02-16T11:19:47;101630.06;;;11.35;100.00
22333;BME280;11334;36.986;-121.936;2024-02-16T11:22:17;101641.22;;;11.38;100.00
22333;BME280;11334;36.986;-121.936;2024-02-16T11:24:45;101628.97;;;11.37;100.00
22333;BME280;11334;36.986;-121.936;2024-02-16T11:27:12;101635.81;;;11.39;100.00
22333;BME280;11334;36.986;-121.936;2024-02-16T11:29:41;101621.28;;;11.25;100.00
22333;BME280;11334;36.986;-121.936;2024-02-16T11:32:07;101616.41;;;11.30;100.00
22333;BME280;11334;36.986;-121.936;2024-02-16T11:34:34;101614.56;;;11.30;100.00
22333;BME280;11334;36.986;-121.936;2024-02-16T11:37:02;101602.31;;;11.29;100.00
22333;BME280;11334;36.986;-121.936;2024-02-16T11:39:29;101611.09;;;11.30;100.00
22333;BME280;11334;36.986;-121.936;2024-02-16T11:42:04;101636.22;;;11.35;100.00
22333;BME280;11334;36.986;-121.936;2024-02-16T11:44:31;101652.84;;;11.37;100.00
22333;BME280;11334;36.986;-121.936;2024-02-16T11:46:58;101647.13;;;11.41;100.00
22333;BME280;11334;36.986;-121.936;2024-02-16T11:49:26;101648.06;;;11.40;100.00
22333;BME280;11334;36.986;-121.936;2024-02-16T11:51:52;101631.91;;;11.34;100.00
22333;BME280;11334;36.986;-121.936;2024-02-16T11:54:18;101610.09;;;11.31;100.00
22333;BME280;11334;36.986;-121.936;2024-02-16T11:56:46;101602.56;;;11.26;100.00
22333;BME280;11334;36.986;-121.936;2024-02-16T11:59:15;101615.97;;;11.34;100.00
22333;BME280;11334;36.986;-121.936;2024-02-16T12:01:56;101627.13;;;11.37;100.00
22333;BME280;11334;36.986;-121.936;2024-02-16T12:07:01;101656.91;;;11.50;100.00
22333;BME280;11334;36.986;-121.936;2024-02-16T12:09:28;101650.34;;;11.45;100.00
22333;BME280;11334;36.986;-121.936;2024-02-16T12:11:55;101655.50;;;11.37;100.00
22333;BME280;11334;36.986;-121.936;2024-02-16T12:14:22;101665.69;;;11.41;100.00
22333;BME280;11334;36.986;-121.936;2024-02-16T12:16:55;101676.44;;;11.40;100.00
22333;BME280;11334;36.986;-121.936;2024-02-16T12:19:22;101666.78;;;11.39;100.00
22333;BME280;11334;36.986;-121.936;2024-02-16T12:21:49;101669.44;;;11.39;100.00